Hecla, New York
Current Conditions -  °F | °C
As of 1:53 AM on Wednesday 22 Oct 2014 (Local Time) from KRME Reporting Station
Overcast Overcast  
Wind Chill: 46°   Ceiling: 3600
Heat Index: 49°   Visibility: 10mi
Dew Point: 45°   Wind: 7mph
Humidity: 86%   Direction: 10°N
Pressure: 30.04"   Gusts: NA
Location:  43.1041°N, 75.4442°W
Report Text: KRME 220553Z AUTO 01006KT 10SM BKN036 OVC048 09/07 A3004 RMK AO2 SLP172 T00940072 10111 20094 51003
Loading
Personal Weather Stations






























Interactive Weather Map
Tropical Storm Tracking
New forecast layout! Learn more

10-Day Weather Forecast

Advertisements
Track Severe Weather on mobile